createdAt,value
2019-06-10T00:02:55.626Z,15.40
2019-06-10T00:07:02.051Z,15.30
2019-06-10T00:11:07.772Z,15.30
2019-06-10T00:15:12.560Z,15.20
2019-06-10T00:19:17.126Z,15.20
2019-06-10T00:23:21.754Z,15.30
2019-06-10T00:27:26.351Z,15.10
2019-06-10T00:31:31.359Z,15.10
2019-06-10T00:35:35.892Z,15.10
2019-06-10T00:39:40.869Z,15.10
2019-06-10T00:43:45.511Z,15.00
2019-06-10T00:47:52.039Z,15.10
2019-06-10T00:51:56.246Z,15.10
2019-06-10T00:56:02.453Z,15.10
2019-06-10T01:00:18.272Z,15.10
2019-06-10T01:04:16.072Z,15.10
2019-06-10T01:08:21.424Z,15.00
2019-06-10T01:12:26.340Z,15.00
2019-06-10T01:16:31.779Z,15.10
2019-06-10T01:20:36.464Z,15.10
2019-06-10T01:24:41.004Z,15.10
2019-06-10T01:28:45.508Z,15.00
2019-06-10T01:32:50.657Z,15.10
2019-06-10T01:36:55.307Z,15.10
2019-06-10T01:41:01.581Z,15.10
2019-06-10T01:45:06.669Z,15.20
2019-06-10T01:49:12.046Z,15.20
2019-06-10T01:53:18.800Z,15.20
2019-06-10T01:57:23.403Z,15.10
2019-06-10T02:01:30.669Z,15.10
2019-06-10T02:05:35.372Z,15.00
2019-06-10T02:09:41.097Z,15.00
2019-06-10T02:13:45.711Z,14.90
2019-06-10T02:17:50.973Z,14.90
2019-06-10T02:21:55.620Z,14.90
2019-06-10T02:26:01.606Z,14.90
2019-06-10T02:30:17.830Z,14.80
2019-06-10T02:34:17.537Z,14.80
2019-06-10T02:38:24.539Z,14.80
2019-06-10T02:42:31.138Z,14.80
2019-06-10T02:46:36.687Z,14.70
2019-06-10T02:50:53.523Z,14.60
2019-06-10T02:54:56.416Z,14.50
2019-06-10T02:59:03.375Z,14.50
2019-06-10T03:03:07.153Z,14.40
2019-06-10T03:07:13.735Z,14.50
2019-06-10T03:11:19.275Z,14.40
2019-06-10T03:15:26.417Z,14.40
2019-06-10T03:19:45.806Z,14.40
2019-06-10T03:23:36.511Z,14.30
2019-06-10T03:27:42.425Z,14.40
2019-06-10T03:31:48.472Z,14.30
2019-06-10T03:35:53.255Z,14.30
2019-06-10T03:39:57.781Z,14.30
2019-06-10T03:44:02.671Z,14.30
2019-06-10T03:48:07.324Z,14.30
2019-06-10T03:52:12.950Z,14.30
2019-06-10T03:56:17.528Z,14.10
2019-06-10T04:00:25.421Z,14.10
2019-06-10T04:04:28.504Z,14.10
2019-06-10T04:08:33.169Z,14.20
2019-06-10T04:12:37.755Z,14.20
2019-06-10T04:16:43.263Z,14.20
2019-06-10T04:20:48.054Z,14.30
2019-06-10T04:24:52.592Z,14.30
2019-06-10T04:28:57.107Z,14.20
2019-06-10T04:33:02.320Z,14.20
2019-06-10T04:37:06.975Z,14.20
2019-06-10T04:41:12.621Z,14.20
2019-06-10T04:45:18.656Z,14.30
2019-06-10T04:49:25.117Z,14.30
2019-06-10T04:53:29.547Z,14.30
2019-06-10T04:57:34.095Z,14.30
2019-06-10T05:01:38.688Z,14.30
2019-06-10T05:05:43.192Z,14.30
2019-06-10T05:09:47.723Z,14.30
2019-06-10T05:13:53.303Z,14.40
2019-06-10T05:17:58.048Z,14.50
2019-06-10T05:22:03.103Z,14.50
2019-06-10T05:26:07.885Z,14.60
2019-06-10T05:30:12.739Z,14.70
2019-06-10T05:34:17.242Z,14.80
2019-06-10T05:38:23.995Z,14.90
2019-06-10T05:42:29.253Z,14.90
2019-06-10T05:46:35.051Z,15.10
2019-06-10T05:50:39.686Z,15.20
2019-06-10T05:54:44.222Z,15.30
2019-06-10T05:58:48.755Z,15.30
2019-06-10T06:02:53.251Z,15.50
2019-06-10T06:06:57.854Z,15.60
2019-06-10T06:11:03.298Z,15.80
2019-06-10T06:15:08.435Z,16.10
2019-06-10T06:19:12.984Z,16.20
2019-06-10T06:23:17.505Z,16.20
2019-06-10T06:27:22.549Z,16.10
2019-06-10T06:31:28.119Z,16.20
2019-06-10T06:35:33.922Z,16.30
2019-06-10T06:39:38.956Z,16.30
2019-06-10T06:43:45.403Z,16.80
2019-06-10T06:47:49.715Z,17.10
2019-06-10T06:51:58.306Z,17.60
2019-06-10T06:56:03.001Z,17.50
2019-06-10T07:00:37.285Z,17.60
2019-06-10T07:04:17.123Z,17.70
2019-06-10T07:08:23.230Z,17.60
2019-06-10T07:12:30.559Z,17.80
2019-06-10T07:16:37.654Z,18.00
2019-06-10T07:20:45.645Z,17.90
2019-06-10T07:24:48.671Z,17.90
2019-06-10T07:28:53.916Z,18.00
2019-06-10T07:32:58.536Z,18.20
2019-06-10T07:37:03.116Z,18.40
2019-06-10T07:41:07.643Z,18.40
2019-06-10T07:45:13.061Z,18.70
2019-06-10T07:49:17.807Z,18.70
2019-06-10T07:53:22.374Z,18.80
2019-06-10T07:57:26.951Z,18.80
2019-06-10T08:01:33.323Z,18.90
2019-06-10T08:05:37.852Z,19.10
2019-06-10T08:09:44.313Z,19.30
2019-06-10T08:13:48.619Z,19.70
2019-06-10T08:17:53.269Z,20.00
2019-06-10T08:21:57.924Z,20.30
2019-06-10T08:26:03.492Z,20.60
2019-06-10T08:30:18.601Z,21.00
2019-06-10T08:34:17.982Z,21.40
2019-06-10T08:38:23.099Z,22.00
2019-06-10T08:42:27.715Z,22.50
2019-06-10T08:46:33.001Z,23.20
2019-06-10T08:50:37.737Z,23.70
2019-06-10T08:54:46.059Z,23.60
2019-06-10T08:58:49.678Z,23.30
2019-06-10T09:02:54.836Z,23.50
2019-06-10T09:06:59.391Z,23.70
2019-06-10T09:11:03.993Z,23.90
2019-06-10T09:15:09.234Z,24.00
2019-06-10T09:19:13.779Z,24.10
2019-06-10T09:23:22.576Z,24.20
2019-06-10T09:27:26.934Z,24.10
2019-06-10T09:31:33.009Z,24.20
2019-06-10T09:35:36.906Z,24.60
2019-06-10T09:39:47.231Z,24.90
2019-06-10T09:43:52.073Z,24.90
2019-06-10T09:47:59.706Z,25.30
2019-06-10T09:52:03.118Z,25.50
2019-06-10T09:56:06.105Z,26.10
2019-06-10T10:00:13.609Z,26.60
2019-06-10T10:04:17.086Z,26.70
2019-06-10T10:08:23.739Z,26.40
2019-06-10T10:12:27.698Z,26.70
2019-06-10T10:16:33.889Z,26.30
2019-06-10T10:20:38.508Z,26.20
2019-06-10T10:24:44.627Z,25.60
2019-06-10T10:28:51.766Z,25.60
2019-06-10T10:32:56.259Z,25.40
2019-06-10T10:37:02.710Z,25.50
2019-06-10T10:41:06.676Z,25.60
2019-06-10T10:45:13.297Z,25.50
2019-06-10T10:49:17.329Z,25.60
2019-06-10T10:53:23.833Z,25.40
2019-06-10T10:57:27.831Z,26.00
2019-06-10T11:01:33.290Z,25.90
2019-06-10T11:05:38.258Z,25.70
2019-06-10T11:09:44.209Z,25.80
2019-06-10T11:13:54.811Z,25.90
2019-06-10T11:17:58.266Z,26.00
2019-06-10T11:22:03.072Z,25.80
2019-06-10T11:26:07.941Z,25.70
2019-06-10T11:30:14.003Z,25.60
2019-06-10T11:34:19.835Z,25.70
2019-06-10T11:38:24.401Z,25.70
2019-06-10T11:42:29.120Z,25.50
2019-06-10T11:46:33.556Z,25.60
2019-06-10T11:50:38.421Z,25.60
2019-06-10T11:54:55.844Z,25.60
2019-06-10T11:58:50.019Z,25.90
2019-06-10T12:02:57.258Z,26.20
2019-06-10T12:07:02.357Z,26.30
2019-06-10T12:11:06.471Z,26.60
2019-06-10T12:15:12.125Z,26.40
2019-06-10T12:19:16.670Z,26.50
2019-06-10T12:23:22.199Z,26.70
2019-06-10T12:27:26.836Z,26.80
2019-06-10T12:31:33.711Z,26.90
2019-06-10T12:35:37.149Z,27.00
2019-06-10T12:39:42.207Z,27.10
2019-06-10T12:43:46.627Z,27.00
2019-06-10T12:47:53.334Z,26.90
2019-06-10T12:51:57.476Z,26.60
2019-06-10T12:56:08.067Z,26.20
2019-06-10T13:00:20.507Z,25.80
2019-06-10T13:04:16.594Z,26.20
2019-06-10T13:08:23.808Z,26.20
2019-06-10T13:12:27.391Z,26.00
2019-06-10T13:16:32.070Z,25.90
2019-06-10T13:20:36.968Z,25.40
2019-06-10T13:24:42.375Z,25.40
2019-06-10T13:28:47.000Z,25.10
2019-06-10T13:32:52.679Z,25.00
2019-06-10T13:36:57.063Z,25.00
2019-06-10T13:41:02.347Z,24.80
2019-06-10T13:45:10.912Z,24.50
2019-06-10T13:49:15.645Z,24.50
2019-06-10T13:53:20.256Z,24.50
2019-06-10T13:57:24.804Z,24.60
2019-06-10T14:01:29.052Z,24.50
2019-06-10T14:05:34.408Z,24.40
2019-06-10T14:09:39.226Z,24.30
2019-06-10T14:13:44.200Z,23.90
2019-06-10T14:17:49.006Z,23.40
2019-06-10T14:21:53.557Z,23.50
2019-06-10T14:25:58.181Z,23.40
2019-06-10T14:30:04.941Z,23.30
2019-06-10T14:34:10.966Z,23.30
2019-06-10T14:38:15.862Z,23.30
2019-06-10T14:42:22.849Z,23.20
2019-06-10T14:46:27.016Z,23.00
2019-06-10T14:50:32.487Z,23.00
2019-06-10T14:54:37.294Z,22.90
2019-06-10T14:58:42.490Z,22.80
2019-06-10T15:02:47.097Z,22.70
2019-06-10T15:06:53.698Z,22.30
2019-06-10T15:10:57.832Z,22.10
2019-06-10T15:15:02.714Z,21.70
2019-06-10T15:19:14.623Z,21.30
2019-06-10T15:23:16.843Z,21.00
2019-06-10T15:27:27.604Z,20.70
2019-06-10T15:31:26.300Z,20.40
2019-06-10T15:35:32.739Z,20.10
2019-06-10T15:39:37.078Z,19.50
2019-06-10T15:43:42.354Z,19.30
2019-06-10T15:47:47.223Z,19.40
2019-06-10T15:51:52.554Z,19.40
2019-06-10T15:56:22.559Z,19.60
2019-06-10T16:00:14.249Z,19.70
2019-06-10T16:04:16.001Z,19.80
2019-06-10T16:08:20.676Z,20.00
2019-06-10T16:12:26.912Z,20.10
2019-06-10T16:16:32.460Z,20.10
2019-06-10T16:20:37.268Z,20.10
2019-06-10T16:24:42.300Z,20.10
2019-06-10T16:28:47.078Z,20.10
2019-06-10T16:32:53.003Z,20.20
2019-06-10T16:36:57.922Z,20.30
2019-06-10T16:41:03.465Z,20.30
2019-06-10T16:45:08.734Z,20.40
2019-06-10T16:49:13.287Z,20.30
2019-06-10T16:53:17.982Z,20.30
2019-06-10T16:57:24.332Z,20.30
2019-06-10T17:01:30.384Z,20.20
2019-06-10T17:05:35.210Z,20.10
2019-06-10T17:09:42.027Z,20.20
2019-06-10T17:13:46.091Z,20.30
2019-06-10T17:17:52.148Z,20.50
2019-06-10T17:21:56.756Z,20.50
2019-06-10T17:26:01.393Z,20.60
2019-06-10T17:30:06.769Z,20.40
2019-06-10T17:34:13.144Z,20.20
2019-06-10T17:38:17.904Z,20.00
2019-06-10T17:42:28.230Z,19.70
2019-06-10T17:46:29.471Z,19.50
2019-06-10T17:50:35.310Z,19.40
2019-06-10T17:54:40.032Z,19.30
2019-06-10T17:58:53.824Z,19.30
2019-06-10T18:02:53.399Z,19.10
2019-06-10T18:06:57.302Z,18.90
2019-06-10T18:11:03.235Z,18.90
2019-06-10T18:15:08.581Z,18.90
2019-06-10T18:19:13.243Z,18.90
2019-06-10T18:23:17.787Z,18.90
2019-06-10T18:27:22.403Z,18.40
2019-06-10T18:31:27.496Z,18.30
2019-06-10T18:35:34.412Z,18.10
2019-06-10T18:39:39.833Z,18.00
2019-06-10T18:43:44.620Z,17.70
2019-06-10T18:47:49.178Z,17.60
2019-06-10T18:51:53.884Z,17.60
2019-06-10T18:55:58.627Z,17.60
2019-06-10T19:00:11.230Z,17.40
2019-06-10T19:04:12.985Z,17.20
2019-06-10T19:08:17.558Z,17.10
2019-06-10T19:12:22.496Z,17.00
2019-06-10T19:16:27.173Z,17.00
2019-06-10T19:20:36.371Z,16.90
2019-06-10T19:24:39.783Z,17.10
2019-06-10T19:28:45.360Z,16.90
2019-06-10T19:32:50.144Z,16.80
2019-06-10T19:36:54.803Z,17.00
2019-06-10T19:40:59.342Z,17.10
2019-06-10T19:45:07.186Z,17.10
2019-06-10T19:49:13.387Z,17.10
2019-06-10T19:53:18.452Z,17.10
2019-06-10T19:57:23.079Z,17.10
2019-06-10T20:01:27.765Z,17.10
2019-06-10T20:05:34.409Z,17.20
2019-06-10T20:09:41.978Z,17.20
2019-06-10T20:13:46.618Z,17.20
2019-06-10T20:17:52.590Z,17.20
2019-06-10T20:21:57.327Z,17.10
2019-06-10T20:26:01.903Z,17.00
2019-06-10T20:30:24.406Z,16.90
2019-06-10T20:34:22.711Z,16.90
2019-06-10T20:38:26.217Z,16.90
2019-06-10T20:42:32.286Z,16.80
2019-06-10T20:46:38.373Z,16.70
2019-06-10T20:50:44.349Z,16.70
2019-06-10T20:54:50.046Z,16.60
2019-06-10T20:58:54.722Z,16.70
2019-06-10T21:02:59.440Z,16.80
2019-06-10T21:07:04.426Z,16.70
2019-06-10T21:11:08.991Z,16.70
2019-06-10T21:15:13.534Z,16.60
2019-06-10T21:19:18.127Z,16.50
2019-06-10T21:23:22.673Z,16.30
2019-06-10T21:27:27.199Z,16.20
2019-06-10T21:31:32.582Z,16.20
2019-06-10T21:35:37.377Z,16.10
2019-06-10T21:39:44.235Z,16.00
2019-06-10T21:43:51.712Z,16.00
2019-06-10T21:47:54.602Z,15.90
2019-06-10T21:51:59.166Z,15.80
2019-06-10T21:56:03.699Z,15.70
2019-06-10T22:00:14.034Z,15.70
2019-06-10T22:04:18.751Z,15.60
2019-06-10T22:08:23.349Z,15.50
2019-06-10T22:12:27.903Z,15.50
2019-06-10T22:16:32.999Z,15.40
2019-06-10T22:20:37.722Z,15.60
2019-06-10T22:24:42.445Z,15.60
2019-06-10T22:28:47.446Z,15.70
2019-06-10T22:32:54.904Z,15.80
2019-06-10T22:36:58.451Z,15.80
2019-06-10T22:41:03.428Z,15.80
2019-06-10T22:45:08.490Z,15.80
2019-06-10T22:49:13.438Z,15.80
2019-06-10T22:53:18.200Z,15.70
2019-06-10T22:57:22.737Z,15.80
2019-06-10T23:01:34.240Z,15.80
2019-06-10T23:05:33.624Z,15.80
2019-06-10T23:09:38.303Z,15.80
2019-06-10T23:13:42.838Z,15.80
2019-06-10T23:17:47.363Z,15.80
2019-06-10T23:21:54.250Z,15.80
2019-06-10T23:25:58.219Z,15.80
2019-06-10T23:30:11.211Z,15.80
2019-06-10T23:34:11.004Z,15.80
2019-06-10T23:38:15.789Z,15.80
2019-06-10T23:42:22.655Z,15.80
2019-06-10T23:46:26.534Z,15.80
2019-06-10T23:50:32.871Z,15.80
2019-06-10T23:54:37.438Z,15.80
2019-06-10T23:58:43.326Z,15.80
